Guadalupe Pass, Texas
Current Conditions -  °F | °C
As of 7:24 AM on Wednesday 22 Oct 2014 (Local Time) from KGDP Reporting Station
Overcast Overcast  
Wind Chill: 55°   Ceiling: 500
Heat Index: 55°   Visibility: 9mi
Dew Point: 53°   Wind: 8mph
Humidity: 93%   Direction: 240°WSW
Pressure: 30.18"   Gusts: NA
Location:  31.83°N, 104.8°W
Report Text: KGDP 221224Z AUTO 24007KT 9SM BKN005 OVC024 13/12 A3018 RMK AO2 T01280117 $
Loading
Personal Weather Stations






























Interactive Weather Map
Tropical Storm Tracking
New forecast layout! Learn more

10-Day Weather Forecast

Advertisements
Track Severe Weather on mobile